createdAt,value
2022-08-03T00:00:30.701Z,23.79
2022-08-03T00:01:30.708Z,23.76
2022-08-03T00:02:30.707Z,23.74
2022-08-03T00:03:30.752Z,23.73
2022-08-03T00:04:34.323Z,23.71
2022-08-03T00:05:30.711Z,23.65
2022-08-03T00:06:36.972Z,23.53
2022-08-03T00:07:30.728Z,23.46
2022-08-03T00:08:30.762Z,23.40
2022-08-03T00:09:35.454Z,23.35
2022-08-03T00:10:30.735Z,23.30
2022-08-03T00:11:30.731Z,23.26
2022-08-03T00:12:30.741Z,23.27
2022-08-03T00:13:30.748Z,23.30
2022-08-03T00:14:30.743Z,23.36
2022-08-03T00:15:30.757Z,23.35
2022-08-03T00:16:30.741Z,23.28
2022-08-03T00:17:30.761Z,23.24
2022-08-03T00:18:30.778Z,23.27
2022-08-03T00:19:30.749Z,23.31
2022-08-03T00:20:30.757Z,23.30
2022-08-03T00:21:30.758Z,23.17
2022-08-03T00:22:30.766Z,23.16
2022-08-03T00:24:30.784Z,23.18
2022-08-03T00:25:30.776Z,23.20
2022-08-03T00:26:30.768Z,23.23
2022-08-03T00:28:30.763Z,23.26
2022-08-03T00:30:31.049Z,23.22
2022-08-03T00:31:44.993Z,23.20
2022-08-03T00:32:30.798Z,23.21
2022-08-03T00:34:57.098Z,23.14
2022-08-03T00:35:47.211Z,23.11
2022-08-03T00:36:30.830Z,23.12
2022-08-03T00:37:40.978Z,23.16
2022-08-03T00:38:30.806Z,23.20
2022-08-03T00:39:30.829Z,23.24
2022-08-03T00:40:30.837Z,23.29
2022-08-03T00:42:30.833Z,23.27
2022-08-03T00:43:34.145Z,23.28
2022-08-03T00:44:30.836Z,23.25
2022-08-03T00:45:30.833Z,23.26
2022-08-03T00:46:30.816Z,23.23
2022-08-03T00:47:30.842Z,23.21
2022-08-03T00:48:33.638Z,23.17
2022-08-03T00:49:30.945Z,23.14
2022-08-03T00:50:30.852Z,23.12
2022-08-03T00:51:30.832Z,23.05
2022-08-03T00:52:30.838Z,22.97
2022-08-03T00:53:30.855Z,22.90
2022-08-03T00:54:30.841Z,22.85
2022-08-03T00:55:30.847Z,22.82
2022-08-03T00:56:30.856Z,22.77
2022-08-03T00:57:30.845Z,22.70
2022-08-03T00:58:30.848Z,22.68
2022-08-03T00:59:30.851Z,22.65
2022-08-03T01:00:30.891Z,22.64
2022-08-03T01:01:32.561Z,22.61
2022-08-03T01:02:30.875Z,22.63
2022-08-03T01:03:30.880Z,22.62
2022-08-03T01:04:30.865Z,22.63
2022-08-03T01:05:30.874Z,22.61
2022-08-03T01:06:30.881Z,22.63
2022-08-03T01:07:30.872Z,22.61
2022-08-03T01:09:30.898Z,22.60
2022-08-03T01:10:30.992Z,22.59
2022-08-03T01:11:30.897Z,22.58
2022-08-03T01:12:30.890Z,22.57
2022-08-03T01:14:03.481Z,22.59
2022-08-03T01:14:30.915Z,22.57
2022-08-03T01:15:30.926Z,22.55
2022-08-03T01:16:36.637Z,22.53
2022-08-03T01:17:30.900Z,22.50
2022-08-03T01:18:30.899Z,22.47
2022-08-03T01:19:30.910Z,22.45
2022-08-03T01:20:34.366Z,22.41
2022-08-03T01:21:30.911Z,22.37
2022-08-03T01:22:30.910Z,22.35
2022-08-03T01:23:30.911Z,22.36
2022-08-03T01:24:30.925Z,22.32
2022-08-03T01:26:30.943Z,22.30
2022-08-03T01:27:30.938Z,22.31
2022-08-03T01:28:30.924Z,22.33
2022-08-03T01:29:30.930Z,22.37
2022-08-03T01:30:30.922Z,22.41
2022-08-03T01:31:30.961Z,22.43
2022-08-03T01:34:30.939Z,22.42
2022-08-03T01:36:30.971Z,22.39
2022-08-03T01:37:30.965Z,22.38
2022-08-03T01:38:30.975Z,22.40
2022-08-03T01:39:30.965Z,22.42
2022-08-03T01:40:30.973Z,22.45
2022-08-03T01:41:30.985Z,22.48
2022-08-03T01:42:30.961Z,22.49
2022-08-03T01:43:59.039Z,22.50
2022-08-03T01:44:31.142Z,22.49
2022-08-03T01:45:34.017Z,22.46
2022-08-03T01:46:30.971Z,22.48
2022-08-03T01:47:30.976Z,22.46
2022-08-03T01:48:30.979Z,22.40
2022-08-03T01:49:31.046Z,22.38
2022-08-03T01:50:30.985Z,22.34
2022-08-03T01:52:31.018Z,22.27
2022-08-03T01:53:31.007Z,22.32
2022-08-03T01:54:31.111Z,22.31
2022-08-03T01:55:31.010Z,22.33
2022-08-03T01:56:31.025Z,22.28
2022-08-03T01:57:34.581Z,22.26
2022-08-03T01:58:31.012Z,22.25
2022-08-03T01:59:31.079Z,22.26
2022-08-03T02:00:31.003Z,22.28
2022-08-03T02:02:29.053Z,22.34
2022-08-03T02:02:34.105Z,22.37
2022-08-03T02:03:31.046Z,22.34
2022-08-03T02:04:31.028Z,22.25
2022-08-03T02:05:31.023Z,22.24
2022-08-03T02:07:01.711Z,22.25
2022-08-03T02:08:31.049Z,22.23
2022-08-03T02:09:31.040Z,22.22
2022-08-03T02:10:34.677Z,22.26
2022-08-03T02:11:31.048Z,22.27
2022-08-03T02:12:31.072Z,22.32
2022-08-03T02:13:31.067Z,22.35
2022-08-03T02:14:31.044Z,22.39
2022-08-03T02:15:31.051Z,22.33
2022-08-03T02:16:31.063Z,22.30
2022-08-03T02:17:38.605Z,22.26
2022-08-03T02:18:31.062Z,22.29
2022-08-03T02:19:35.473Z,22.30
2022-08-03T02:20:31.074Z,22.31
2022-08-03T02:22:31.084Z,22.30
2022-08-03T02:23:31.083Z,22.28
2022-08-03T02:24:31.084Z,22.27
2022-08-03T02:25:31.082Z,22.20
2022-08-03T02:26:31.083Z,22.13
2022-08-03T02:27:31.089Z,22.06
2022-08-03T02:28:31.130Z,22.04
2022-08-03T02:30:31.095Z,21.99
2022-08-03T02:31:31.088Z,21.98
2022-08-03T02:32:31.143Z,21.94
2022-08-03T02:33:31.110Z,21.95
2022-08-03T02:34:34.797Z,21.94
2022-08-03T02:35:31.095Z,21.91
2022-08-03T02:36:31.457Z,21.83
2022-08-03T02:37:31.119Z,21.79
2022-08-03T02:38:31.133Z,21.78
2022-08-03T02:39:31.117Z,21.77
2022-08-03T02:40:31.114Z,21.76
2022-08-03T02:41:31.126Z,21.77
2022-08-03T02:44:05.331Z,21.75
2022-08-03T02:45:31.165Z,21.76
2022-08-03T02:46:31.141Z,21.79
2022-08-03T02:47:53.636Z,21.82
2022-08-03T02:48:31.142Z,21.78
2022-08-03T02:49:41.204Z,21.77
2022-08-03T02:50:31.146Z,21.74
2022-08-03T02:51:31.152Z,21.63
2022-08-03T02:52:31.161Z,21.46
2022-08-03T02:53:31.223Z,21.43
2022-08-03T02:54:31.158Z,21.42
2022-08-03T02:56:31.164Z,21.41
2022-08-03T02:57:31.161Z,21.37
2022-08-03T02:58:31.163Z,21.33
2022-08-03T02:59:31.169Z,21.28
2022-08-03T03:01:31.236Z,21.27
2022-08-03T03:02:31.166Z,21.24
2022-08-03T03:03:35.297Z,21.18
2022-08-03T03:05:52.269Z,21.13
2022-08-03T03:06:31.183Z,21.12
2022-08-03T03:09:41.823Z,21.13
2022-08-03T03:10:31.192Z,21.18
2022-08-03T03:11:34.988Z,21.22
2022-08-03T03:12:31.211Z,21.25
2022-08-03T03:14:33.928Z,21.29
2022-08-03T03:15:31.218Z,21.31
2022-08-03T03:16:31.213Z,21.35
2022-08-03T03:19:31.250Z,21.29
2022-08-03T03:20:31.238Z,21.25
2022-08-03T03:21:31.216Z,21.21
2022-08-03T03:22:31.207Z,21.20
2022-08-03T03:23:31.233Z,21.21
2022-08-03T03:25:31.250Z,21.24
2022-08-03T03:26:31.226Z,21.27
2022-08-03T03:27:31.232Z,21.30
2022-08-03T03:28:31.261Z,21.36
2022-08-03T03:29:31.238Z,21.42
2022-08-03T03:30:31.254Z,21.48
2022-08-03T03:31:31.261Z,21.51
2022-08-03T03:32:31.229Z,21.54
2022-08-03T03:33:31.256Z,21.50
2022-08-03T03:34:31.255Z,21.44
2022-08-03T03:35:31.234Z,21.38
2022-08-03T03:36:31.270Z,21.30
2022-08-03T03:37:31.266Z,21.24
2022-08-03T03:38:31.257Z,21.20
2022-08-03T03:39:31.288Z,21.15
2022-08-03T03:40:31.290Z,21.13
2022-08-03T03:41:31.267Z,21.14
2022-08-03T03:42:31.285Z,21.13
2022-08-03T03:43:31.273Z,21.10
2022-08-03T03:46:31.310Z,21.02
2022-08-03T03:47:32.834Z,21.01
2022-08-03T03:48:35.197Z,20.97
2022-08-03T03:49:31.335Z,20.96
2022-08-03T03:51:31.298Z,20.95
2022-08-03T03:53:31.303Z,20.98
2022-08-03T03:54:31.313Z,21.00
2022-08-03T03:55:31.312Z,21.02
2022-08-03T03:57:31.354Z,21.03
2022-08-03T03:58:31.312Z,21.02
2022-08-03T03:59:31.314Z,20.99
2022-08-03T04:00:31.363Z,20.98
2022-08-03T04:02:31.332Z,20.97
2022-08-03T04:03:31.333Z,20.96
2022-08-03T04:04:31.341Z,20.95
2022-08-03T04:05:31.335Z,20.94
2022-08-03T04:08:31.370Z,20.93
2022-08-03T04:09:31.333Z,20.89
2022-08-03T04:11:31.979Z,20.86
2022-08-03T04:12:31.371Z,20.84
2022-08-03T04:13:31.363Z,20.83
2022-08-03T04:14:31.356Z,20.84
2022-08-03T04:15:31.356Z,20.85
2022-08-03T04:16:31.363Z,20.90
2022-08-03T04:17:31.369Z,20.91
2022-08-03T04:18:31.356Z,20.95
2022-08-03T04:19:31.409Z,20.96
2022-08-03T04:20:31.385Z,20.95
2022-08-03T04:21:31.377Z,20.92
2022-08-03T04:22:31.388Z,20.91
2022-08-03T04:23:31.370Z,20.88
2022-08-03T04:24:31.383Z,20.86
2022-08-03T04:25:35.423Z,20.87
2022-08-03T04:26:31.392Z,20.91
2022-08-03T04:27:31.402Z,20.95
2022-08-03T04:28:31.965Z,21.01
2022-08-03T04:29:31.411Z,21.09
2022-08-03T04:30:31.406Z,21.13
2022-08-03T04:31:31.421Z,21.12
2022-08-03T04:32:31.401Z,21.10
2022-08-03T04:33:31.419Z,21.11
2022-08-03T04:34:31.448Z,21.13
2022-08-03T04:36:01.168Z,21.07
2022-08-03T04:36:31.419Z,21.04
2022-08-03T04:37:31.445Z,20.96
2022-08-03T04:38:31.462Z,20.92
2022-08-03T04:39:31.422Z,20.90
2022-08-03T04:41:31.445Z,20.91
2022-08-03T04:42:31.431Z,20.96
2022-08-03T04:43:31.434Z,21.03
2022-08-03T04:44:31.440Z,21.10
2022-08-03T04:45:31.435Z,21.18
2022-08-03T04:46:31.441Z,21.25
2022-08-03T04:47:31.462Z,21.33
2022-08-03T04:48:31.472Z,21.40
2022-08-03T04:49:31.523Z,21.44
2022-08-03T04:50:31.455Z,21.49
2022-08-03T04:51:31.453Z,21.53
2022-08-03T04:52:31.453Z,21.57
2022-08-03T04:53:31.464Z,21.60
2022-08-03T04:54:31.472Z,21.64
2022-08-03T04:55:31.499Z,21.66
2022-08-03T04:56:31.476Z,21.67
2022-08-03T04:57:31.477Z,21.69
2022-08-03T04:59:31.499Z,21.67
2022-08-03T05:00:31.481Z,21.65
2022-08-03T05:01:31.552Z,21.66
2022-08-03T05:02:35.638Z,21.68
2022-08-03T05:03:31.489Z,21.67
2022-08-03T05:04:31.543Z,21.66
2022-08-03T05:05:37.844Z,21.60
2022-08-03T05:06:31.498Z,21.57
2022-08-03T05:07:35.660Z,21.55
2022-08-03T05:08:31.486Z,21.54
2022-08-03T05:09:50.021Z,21.56
2022-08-03T05:10:31.525Z,21.59
2022-08-03T05:11:31.509Z,21.61
2022-08-03T05:12:32.865Z,21.65
2022-08-03T05:13:31.513Z,21.69
2022-08-03T05:14:31.503Z,21.64
2022-08-03T05:15:31.550Z,21.59
2022-08-03T05:16:31.513Z,21.60
2022-08-03T05:17:31.514Z,21.69
2022-08-03T05:18:31.535Z,21.76
2022-08-03T05:19:31.522Z,21.86
2022-08-03T05:20:31.524Z,21.96
2022-08-03T05:21:52.029Z,22.05
2022-08-03T05:22:31.537Z,22.15
2022-08-03T05:23:31.544Z,22.23
2022-08-03T05:24:31.581Z,22.30
2022-08-03T05:25:31.548Z,22.38
2022-08-03T05:26:31.624Z,22.46
2022-08-03T05:27:31.549Z,22.49
2022-08-03T05:28:31.555Z,22.55
2022-08-03T05:29:31.554Z,22.58
2022-08-03T05:30:33.910Z,22.63
2022-08-03T05:31:31.560Z,22.71
2022-08-03T05:32:31.575Z,22.73
2022-08-03T05:33:31.576Z,22.75
2022-08-03T05:34:31.556Z,22.80
2022-08-03T05:36:03.020Z,22.84
2022-08-03T05:36:31.562Z,22.88
2022-08-03T05:37:31.569Z,22.89
2022-08-03T05:38:34.831Z,22.92
2022-08-03T05:39:35.868Z,22.94
2022-08-03T05:40:31.579Z,22.97
2022-08-03T05:41:37.342Z,23.04
2022-08-03T05:42:31.596Z,23.09
2022-08-03T05:43:31.640Z,23.15
2022-08-03T05:44:31.627Z,23.21
2022-08-03T05:45:31.630Z,23.22
2022-08-03T05:46:31.590Z,23.25
2022-08-03T05:47:31.602Z,23.26
2022-08-03T05:48:31.592Z,23.36
2022-08-03T05:49:31.673Z,23.37
2022-08-03T05:50:31.620Z,23.39
2022-08-03T05:51:31.622Z,23.45
2022-08-03T05:52:31.606Z,23.51
2022-08-03T05:53:31.600Z,23.56
2022-08-03T05:54:57.279Z,23.62
2022-08-03T05:55:31.646Z,23.63
2022-08-03T05:56:31.666Z,23.65
2022-08-03T05:57:31.633Z,23.70
2022-08-03T05:58:31.632Z,23.73
2022-08-03T05:59:38.041Z,23.77
2022-08-03T06:00:31.629Z,23.82
2022-08-03T06:01:31.663Z,23.90
2022-08-03T06:02:31.636Z,23.98
2022-08-03T06:03:31.640Z,24.06
2022-08-03T06:04:31.644Z,24.13
2022-08-03T06:06:32.454Z,24.21
2022-08-03T06:07:31.653Z,24.28
2022-08-03T06:08:31.656Z,24.31
2022-08-03T06:10:34.171Z,24.34
2022-08-03T06:10:36.157Z,24.38
2022-08-03T06:11:31.652Z,24.42
2022-08-03T06:12:31.663Z,24.49
2022-08-03T06:13:31.670Z,24.53
2022-08-03T06:14:31.697Z,24.45
2022-08-03T06:15:31.663Z,24.40
2022-08-03T06:16:36.066Z,24.37
2022-08-03T06:17:37.178Z,24.35
2022-08-03T06:18:31.682Z,24.28
2022-08-03T06:19:31.691Z,24.35
2022-08-03T06:20:31.695Z,24.41
2022-08-03T06:21:31.687Z,24.48
2022-08-03T06:22:31.712Z,24.46
2022-08-03T06:23:52.610Z,24.47
2022-08-03T06:24:31.714Z,24.52
2022-08-03T06:25:31.700Z,24.62
2022-08-03T06:26:31.728Z,24.70
2022-08-03T06:27:37.237Z,24.81
2022-08-03T06:28:53.139Z,24.85
2022-08-03T06:29:31.705Z,24.92
2022-08-03T06:30:31.710Z,24.99
2022-08-03T06:31:32.731Z,25.04
2022-08-03T06:32:31.719Z,25.10
2022-08-03T06:34:30.987Z,25.22
2022-08-03T06:34:35.444Z,25.31
2022-08-03T06:35:31.718Z,25.41
2022-08-03T06:36:31.732Z,25.50
2022-08-03T06:37:31.756Z,25.61
2022-08-03T06:38:31.749Z,25.72
2022-08-03T06:39:31.715Z,25.67
2022-08-03T06:40:31.720Z,25.77
2022-08-03T06:41:31.749Z,25.83
2022-08-03T06:42:31.749Z,25.90
2022-08-03T06:43:35.900Z,25.89
2022-08-03T06:44:31.747Z,25.91
2022-08-03T06:45:32.284Z,25.92
2022-08-03T06:46:31.759Z,25.98
2022-08-03T06:47:31.782Z,26.08
2022-08-03T06:48:31.762Z,26.20
2022-08-03T06:49:31.852Z,26.14
2022-08-03T06:52:03.900Z,26.17
2022-08-03T06:52:37.793Z,26.24
2022-08-03T06:53:36.274Z,26.30
2022-08-03T06:54:33.221Z,26.39
2022-08-03T06:55:31.784Z,26.51
2022-08-03T06:56:31.788Z,26.49
2022-08-03T06:57:31.815Z,26.45
2022-08-03T06:58:31.779Z,26.55
2022-08-03T07:00:07.917Z,26.51
2022-08-03T07:00:31.798Z,26.49
2022-08-03T07:01:31.864Z,26.57
2022-08-03T07:02:31.796Z,26.61
2022-08-03T07:03:31.800Z,26.67
2022-08-03T07:04:31.796Z,26.72
2022-08-03T07:05:31.813Z,26.83
2022-08-03T07:06:31.806Z,26.97
2022-08-03T07:07:31.850Z,26.99
2022-08-03T07:08:33.913Z,27.14
2022-08-03T07:09:31.806Z,27.23
2022-08-03T07:10:31.844Z,27.02
2022-08-03T07:11:31.832Z,27.06
2022-08-03T07:12:31.825Z,27.07
2022-08-03T07:13:31.836Z,27.10
2022-08-03T07:14:31.832Z,27.18
2022-08-03T07:15:54.314Z,27.25
2022-08-03T07:16:31.841Z,27.44
2022-08-03T07:17:31.865Z,27.63
2022-08-03T07:18:31.845Z,27.80
2022-08-03T07:19:31.845Z,27.98
2022-08-03T07:20:32.704Z,28.17
2022-08-03T07:21:31.839Z,28.22
2022-08-03T07:22:31.863Z,28.30
2022-08-03T07:23:31.861Z,28.20
2022-08-03T07:24:31.857Z,28.12
2022-08-03T07:25:31.857Z,28.02
2022-08-03T07:26:31.882Z,28.03
2022-08-03T07:28:31.900Z,28.15
2022-08-03T07:29:34.741Z,28.17
2022-08-03T07:30:36.630Z,28.22
2022-08-03T07:31:34.355Z,28.36
2022-08-03T07:32:31.967Z,28.50
2022-08-03T07:33:31.881Z,28.61
2022-08-03T07:34:31.878Z,28.76
2022-08-03T07:35:31.884Z,28.92
2022-08-03T07:36:31.933Z,29.06
2022-08-03T07:37:31.900Z,29.18
2022-08-03T07:38:31.921Z,29.25
2022-08-03T07:39:31.918Z,29.27
2022-08-03T07:40:32.225Z,29.33
2022-08-03T07:41:31.890Z,29.29
2022-08-03T07:42:31.906Z,29.32
2022-08-03T07:43:31.898Z,29.14
2022-08-03T07:44:31.906Z,29.24
2022-08-03T07:45:31.915Z,29.30
2022-08-03T07:46:31.910Z,29.38
2022-08-03T07:47:35.621Z,29.55
2022-08-03T07:48:31.939Z,29.51
2022-08-03T07:49:31.949Z,29.57
2022-08-03T07:50:31.918Z,29.72
2022-08-03T07:51:31.926Z,29.85
2022-08-03T07:52:31.921Z,30.00
2022-08-03T07:53:31.932Z,30.06
2022-08-03T07:54:31.954Z,30.07
2022-08-03T07:55:31.939Z,30.09
2022-08-03T07:56:31.939Z,30.05
2022-08-03T07:57:31.947Z,29.87
2022-08-03T07:58:31.950Z,29.95
2022-08-03T07:59:56.788Z,30.05
2022-08-03T08:00:31.953Z,30.17
2022-08-03T08:01:32.053Z,30.32
2022-08-03T08:02:31.967Z,30.45
2022-08-03T08:03:41.020Z,30.48
2022-08-03T08:04:31.996Z,30.54
2022-08-03T08:05:31.985Z,30.58
2022-08-03T08:06:31.954Z,30.61
2022-08-03T08:07:36.894Z,30.75
2022-08-03T08:08:31.970Z,30.92
2022-08-03T08:09:31.972Z,31.05
2022-08-03T08:10:31.981Z,31.08
2022-08-03T08:11:33.265Z,31.17
2022-08-03T08:12:31.989Z,31.31
2022-08-03T08:13:32.030Z,31.44
2022-08-03T08:14:31.983Z,31.34
2022-08-03T08:15:32.073Z,31.55
2022-08-03T08:16:31.984Z,31.65
2022-08-03T08:17:31.991Z,31.69
2022-08-03T08:18:32.006Z,31.83
2022-08-03T08:19:31.998Z,31.91
2022-08-03T08:20:32.193Z,31.99
2022-08-03T08:21:53.693Z,32.07
2022-08-03T08:22:32.000Z,32.06
2022-08-03T08:23:43.172Z,32.15
2022-08-03T08:24:32.025Z,32.23
2022-08-03T08:25:32.094Z,32.34
2022-08-03T08:26:32.007Z,32.47
2022-08-03T08:28:29.284Z,32.56
2022-08-03T08:28:33.541Z,32.50
2022-08-03T08:29:32.027Z,32.51
2022-08-03T08:30:32.034Z,32.56
2022-08-03T08:31:32.026Z,32.46
2022-08-03T08:32:32.043Z,32.26
2022-08-03T08:33:54.203Z,32.35
2022-08-03T08:34:32.040Z,32.42
2022-08-03T08:35:32.054Z,32.52
2022-08-03T08:36:32.049Z,32.49
2022-08-03T08:37:32.043Z,32.56
2022-08-03T08:38:32.045Z,32.64
2022-08-03T08:39:32.068Z,32.75
2022-08-03T08:40:32.068Z,32.81
2022-08-03T08:41:32.438Z,32.72
2022-08-03T08:42:32.057Z,32.62
2022-08-03T08:43:32.086Z,32.49
2022-08-03T08:44:37.118Z,32.26
2022-08-03T08:45:32.068Z,32.30
2022-08-03T08:46:32.072Z,32.38
2022-08-03T08:47:50.955Z,32.49
2022-08-03T08:48:32.094Z,32.52
2022-08-03T08:49:32.156Z,32.51
2022-08-03T08:50:32.090Z,32.63
2022-08-03T08:51:51.040Z,32.78
2022-08-03T08:52:32.336Z,32.68
2022-08-03T08:53:32.126Z,32.59
2022-08-03T08:54:32.105Z,32.37
2022-08-03T08:55:59.006Z,32.42
2022-08-03T08:56:32.086Z,32.58
2022-08-03T08:57:41.896Z,32.82
2022-08-03T08:58:32.098Z,32.89
2022-08-03T08:59:49.010Z,32.90
2022-08-03T09:00:32.148Z,32.63
2022-08-03T09:01:32.191Z,32.76
2022-08-03T09:02:32.138Z,32.71
2022-08-03T09:03:32.156Z,32.82
2022-08-03T09:04:32.118Z,32.89
2022-08-03T09:05:54.954Z,33.02
2022-08-03T09:06:32.121Z,33.14
2022-08-03T09:07:32.342Z,33.20
2022-08-03T09:08:32.133Z,33.29
2022-08-03T09:10:10.901Z,33.48
2022-08-03T09:10:32.147Z,33.65
2022-08-03T09:11:51.772Z,33.86
2022-08-03T09:12:41.979Z,34.03
2022-08-03T09:13:32.167Z,34.07
2022-08-03T09:14:36.790Z,34.19
2022-08-03T09:15:32.144Z,34.25
2022-08-03T09:16:32.161Z,34.19
2022-08-03T09:17:32.154Z,34.20
2022-08-03T09:18:32.719Z,34.32
2022-08-03T09:19:32.147Z,34.25
2022-08-03T09:20:32.155Z,34.28
2022-08-03T09:21:37.164Z,34.15
2022-08-03T09:22:32.182Z,34.09
2022-08-03T09:23:59.543Z,34.02
2022-08-03T09:24:41.244Z,33.95
2022-08-03T09:25:32.178Z,33.85
2022-08-03T09:26:32.213Z,33.84
2022-08-03T09:27:32.183Z,33.56
2022-08-03T09:28:58.081Z,33.38
2022-08-03T09:29:32.194Z,33.48
2022-08-03T09:30:34.267Z,33.60
2022-08-03T09:31:32.183Z,33.71
2022-08-03T09:32:32.911Z,33.86
2022-08-03T09:33:35.978Z,34.08
2022-08-03T09:34:32.218Z,34.22
2022-08-03T09:35:53.056Z,34.32
2022-08-03T09:36:32.196Z,34.44
2022-08-03T09:38:12.854Z,34.52
2022-08-03T09:38:32.229Z,34.64
2022-08-03T09:39:41.508Z,34.81
2022-08-03T09:40:32.228Z,34.95
2022-08-03T09:41:32.236Z,35.05
2022-08-03T09:42:32.230Z,35.14
2022-08-03T09:43:32.298Z,35.24
2022-08-03T09:44:32.208Z,35.37
2022-08-03T09:45:32.246Z,35.44
2022-08-03T09:46:32.231Z,35.54
2022-08-03T09:47:32.245Z,35.58
2022-08-03T09:48:32.235Z,35.64
2022-08-03T09:49:32.362Z,35.69
2022-08-03T09:50:32.252Z,35.70
2022-08-03T09:51:33.103Z,35.73
2022-08-03T09:52:38.976Z,35.78
2022-08-03T09:53:32.299Z,35.80
2022-08-03T09:54:32.245Z,35.76
2022-08-03T09:56:34.595Z,35.73
2022-08-03T09:56:35.531Z,35.82
2022-08-03T09:57:32.279Z,35.89
2022-08-03T09:58:32.272Z,35.77
2022-08-03T09:59:32.301Z,35.67
2022-08-03T10:00:32.271Z,35.44
2022-08-03T10:01:32.333Z,35.19
2022-08-03T10:02:32.285Z,35.23
2022-08-03T10:03:32.277Z,35.36
2022-08-03T10:04:32.304Z,35.43
2022-08-03T10:05:32.299Z,35.44
2022-08-03T10:06:32.306Z,35.48
2022-08-03T10:07:32.300Z,35.55
2022-08-03T10:08:32.296Z,35.54
2022-08-03T10:09:32.303Z,35.59
2022-08-03T10:10:32.475Z,35.71
2022-08-03T10:11:33.609Z,35.77
2022-08-03T10:12:32.317Z,35.69
2022-08-03T10:13:32.345Z,35.77
2022-08-03T10:14:32.301Z,35.75
2022-08-03T10:16:23.901Z,35.60
2022-08-03T10:16:32.315Z,35.49
2022-08-03T10:17:33.087Z,35.47
2022-08-03T10:18:32.341Z,35.52
2022-08-03T10:19:32.319Z,35.60
2022-08-03T10:20:32.325Z,35.53
2022-08-03T10:21:32.342Z,35.44
2022-08-03T10:22:32.331Z,35.49
2022-08-03T10:23:34.074Z,35.45
2022-08-03T10:24:32.339Z,35.49
2022-08-03T10:25:33.203Z,35.55
2022-08-03T10:26:32.333Z,35.66
2022-08-03T10:27:32.352Z,35.75
2022-08-03T10:28:33.705Z,35.86
2022-08-03T10:29:32.394Z,35.93
2022-08-03T10:30:32.371Z,36.01
2022-08-03T10:31:32.362Z,36.08
2022-08-03T10:32:32.936Z,36.15
2022-08-03T10:33:50.892Z,36.13
2022-08-03T10:35:32.393Z,36.15
2022-08-03T10:36:32.620Z,36.14
2022-08-03T10:38:32.371Z,36.15
2022-08-03T10:39:32.380Z,36.17
2022-08-03T10:40:48.019Z,36.21
2022-08-03T10:41:32.458Z,36.28
2022-08-03T10:42:32.396Z,36.31
2022-08-03T10:43:32.389Z,36.27
2022-08-03T10:44:32.399Z,36.21
2022-08-03T10:45:32.409Z,36.13
2022-08-03T10:46:32.391Z,36.03
2022-08-03T10:47:32.398Z,35.98
2022-08-03T10:48:32.393Z,35.99
2022-08-03T10:49:34.580Z,36.01
2022-08-03T10:50:32.431Z,36.05
2022-08-03T10:51:32.447Z,36.04
2022-08-03T10:52:39.510Z,35.87
2022-08-03T10:53:32.435Z,35.79
2022-08-03T10:54:32.410Z,35.74
2022-08-03T10:55:32.437Z,35.77
2022-08-03T10:56:35.697Z,35.67
2022-08-03T10:57:32.419Z,35.60
2022-08-03T10:58:32.424Z,35.55
2022-08-03T10:59:32.434Z,35.47
2022-08-03T11:00:32.564Z,35.41
2022-08-03T11:01:54.199Z,35.47
2022-08-03T11:02:32.444Z,35.53
2022-08-03T11:03:32.449Z,35.59
2022-08-03T11:04:32.432Z,35.68
2022-08-03T11:05:32.438Z,35.72
2022-08-03T11:06:37.554Z,35.74
2022-08-03T11:08:32.447Z,35.79
2022-08-03T11:09:33.138Z,35.87
2022-08-03T11:10:32.455Z,35.96
2022-08-03T11:11:32.490Z,35.98
2022-08-03T11:12:32.696Z,35.99
2022-08-03T11:13:32.478Z,35.96
2022-08-03T11:14:32.468Z,35.99
2022-08-03T11:16:32.497Z,36.02
2022-08-03T11:17:32.477Z,36.07
2022-08-03T11:18:32.477Z,36.11
2022-08-03T11:21:32.508Z,36.13
2022-08-03T11:25:54.027Z,36.10
2022-08-03T11:26:32.515Z,36.08
2022-08-03T11:27:32.508Z,36.11
2022-08-03T11:28:32.508Z,36.09
2022-08-03T11:29:32.498Z,36.06
2022-08-03T11:30:32.499Z,36.02
2022-08-03T11:31:49.343Z,35.94
2022-08-03T11:32:32.521Z,35.73
2022-08-03T11:33:32.532Z,35.55
2022-08-03T11:34:32.533Z,35.49
2022-08-03T11:35:32.528Z,35.43
2022-08-03T11:36:32.801Z,35.47
2022-08-03T11:37:33.453Z,35.55
2022-08-03T11:38:32.542Z,35.63
2022-08-03T11:39:32.549Z,35.70
2022-08-03T11:40:32.587Z,35.69
2022-08-03T11:41:32.617Z,35.58
2022-08-03T11:42:32.573Z,35.43
2022-08-03T11:43:32.565Z,35.35
2022-08-03T11:44:32.560Z,35.24
2022-08-03T11:45:32.569Z,35.18
2022-08-03T11:46:33.397Z,35.22
2022-08-03T11:47:32.593Z,35.29
2022-08-03T11:48:32.578Z,35.36
2022-08-03T11:49:32.614Z,35.38
2022-08-03T11:50:32.566Z,35.40
2022-08-03T11:51:32.606Z,35.29
2022-08-03T11:52:32.599Z,35.27
2022-08-03T11:53:32.580Z,35.19
2022-08-03T11:54:32.578Z,35.17
2022-08-03T11:55:32.571Z,35.05
2022-08-03T11:56:33.662Z,35.03
2022-08-03T11:59:01.744Z,35.06
2022-08-03T11:59:13.072Z,35.07
2022-08-03T11:59:32.584Z,35.04
2022-08-03T12:00:32.648Z,35.11
2022-08-03T12:01:32.647Z,35.20
2022-08-03T12:02:32.596Z,35.27
2022-08-03T12:03:32.637Z,35.34
2022-08-03T12:04:32.608Z,35.43
2022-08-03T12:05:32.617Z,35.46
2022-08-03T12:06:32.617Z,35.47
2022-08-03T12:08:04.316Z,35.52
2022-08-03T12:08:32.751Z,35.58
2022-08-03T12:09:32.631Z,35.63
2022-08-03T12:10:32.610Z,35.60
2022-08-03T12:11:32.629Z,35.66
2022-08-03T12:12:32.621Z,35.71
2022-08-03T12:14:45.213Z,35.75
2022-08-03T12:14:49.545Z,35.78
2022-08-03T12:15:32.643Z,35.77
2022-08-03T12:17:32.669Z,35.81
2022-08-03T12:18:32.644Z,35.77
2022-08-03T12:19:32.642Z,35.75
2022-08-03T12:20:35.384Z,35.70
2022-08-03T12:21:32.652Z,35.61
2022-08-03T12:22:32.677Z,35.60
2022-08-03T12:23:37.567Z,35.66
2022-08-03T12:24:32.660Z,35.71
2022-08-03T12:25:38.672Z,35.75
2022-08-03T12:26:32.673Z,35.71
2022-08-03T12:27:32.701Z,35.64
2022-08-03T12:29:32.716Z,35.70
2022-08-03T12:30:32.670Z,35.77
2022-08-03T12:31:32.709Z,35.84
2022-08-03T12:32:32.691Z,35.88
2022-08-03T12:33:32.686Z,35.84
2022-08-03T12:35:32.692Z,35.85
2022-08-03T12:36:32.679Z,35.73
2022-08-03T12:37:32.904Z,35.69
2022-08-03T12:38:32.720Z,35.68
2022-08-03T12:39:32.700Z,35.67
2022-08-03T12:40:32.717Z,35.63
2022-08-03T12:41:34.052Z,35.67
2022-08-03T12:42:32.759Z,35.60
2022-08-03T12:43:37.618Z,35.50
2022-08-03T12:44:32.720Z,35.39
2022-08-03T12:45:32.736Z,35.37
2022-08-03T12:46:32.718Z,35.27
2022-08-03T12:47:32.741Z,35.25
2022-08-03T12:48:32.730Z,35.27
2022-08-03T12:49:32.808Z,35.21
2022-08-03T12:50:32.734Z,35.19
2022-08-03T12:51:32.784Z,35.21
2022-08-03T12:52:33.553Z,35.26
2022-08-03T12:53:32.757Z,35.27
2022-08-03T12:54:32.760Z,35.29
2022-08-03T12:55:32.750Z,35.32
2022-08-03T12:56:32.746Z,35.35
2022-08-03T12:57:32.752Z,35.34
2022-08-03T12:58:32.755Z,35.38
2022-08-03T12:59:35.413Z,35.41
2022-08-03T13:00:33.781Z,35.29
2022-08-03T13:01:32.785Z,35.28
2022-08-03T13:02:32.844Z,34.96
2022-08-03T13:03:42.417Z,34.48
2022-08-03T13:04:33.207Z,34.04
2022-08-03T13:05:34.172Z,33.68
2022-08-03T13:06:32.773Z,33.42
2022-08-03T13:07:32.767Z,33.08
2022-08-03T13:08:32.795Z,32.93
2022-08-03T13:09:32.770Z,32.75
2022-08-03T13:10:32.779Z,32.76
2022-08-03T13:11:58.127Z,32.77
2022-08-03T13:12:32.865Z,32.65
2022-08-03T13:13:32.783Z,32.57
2022-08-03T13:14:32.808Z,32.36
2022-08-03T13:15:33.560Z,32.28
2022-08-03T13:17:32.804Z,32.32
2022-08-03T13:18:32.809Z,32.45
2022-08-03T13:19:32.805Z,32.67
2022-08-03T13:20:32.797Z,32.96
2022-08-03T13:21:32.801Z,33.11
2022-08-03T13:22:32.851Z,33.12
2022-08-03T13:23:32.828Z,33.07
2022-08-03T13:24:32.895Z,33.01
2022-08-03T13:25:32.814Z,33.16
2022-08-03T13:26:32.837Z,33.23
2022-08-03T13:28:04.796Z,33.43
2022-08-03T13:28:32.855Z,33.47
2022-08-03T13:29:32.834Z,33.51
2022-08-03T13:30:32.830Z,33.45
2022-08-03T13:31:32.844Z,33.34
2022-08-03T13:32:32.841Z,33.30
2022-08-03T13:33:32.842Z,33.23
2022-08-03T13:34:32.852Z,33.14
2022-08-03T13:35:32.858Z,33.08
2022-08-03T13:36:52.900Z,32.97
2022-08-03T13:38:32.936Z,32.98
2022-08-03T13:39:32.968Z,32.88
2022-08-03T13:40:41.422Z,32.63
2022-08-03T13:41:32.872Z,32.58
2022-08-03T13:42:32.877Z,32.32
2022-08-03T13:43:32.870Z,32.07
2022-08-03T13:44:32.879Z,31.90
2022-08-03T13:45:32.872Z,31.85